createdAt,value
2022-09-12T00:00:54.456Z,96.56
2022-09-12T00:01:54.418Z,96.46
2022-09-12T00:02:54.387Z,96.36
2022-09-12T00:03:54.367Z,96.36
2022-09-12T00:04:54.391Z,96.26
2022-09-12T00:05:54.387Z,96.26
2022-09-12T00:06:54.327Z,96.36
2022-09-12T00:07:54.333Z,96.56
2022-09-12T00:08:54.297Z,96.77
2022-09-12T00:09:54.304Z,97.02
2022-09-12T00:10:54.270Z,96.92
2022-09-12T00:11:54.260Z,96.71
2022-09-12T00:12:54.269Z,96.61
2022-09-12T00:13:54.273Z,96.51
2022-09-12T00:14:54.215Z,96.81
2022-09-12T00:15:54.234Z,97.12
2022-09-12T00:16:54.291Z,97.33
2022-09-12T00:17:54.186Z,97.88
2022-09-12T00:18:54.160Z,97.78
2022-09-12T00:19:54.160Z,97.67
2022-09-12T00:20:54.163Z,97.78
2022-09-12T00:21:54.127Z,97.57
2022-09-12T00:22:54.131Z,97.47
2022-09-12T00:23:54.126Z,97.37
2022-09-12T00:24:54.076Z,97.12
2022-09-12T00:25:54.078Z,96.92
2022-09-12T00:26:54.056Z,96.81
2022-09-12T00:27:54.060Z,96.71
2022-09-12T00:28:54.061Z,96.71
2022-09-12T00:29:54.046Z,96.61
2022-09-12T00:30:54.011Z,96.51
2022-09-12T00:31:54.038Z,96.51
2022-09-12T00:32:54.000Z,96.41
2022-09-12T00:33:53.970Z,96.41
2022-09-12T00:34:53.949Z,96.30
2022-09-12T00:35:53.951Z,96.25
2022-09-12T00:36:53.926Z,96.14
2022-09-12T00:37:53.914Z,96.04
2022-09-12T00:38:53.897Z,96.04
2022-09-12T00:39:53.955Z,95.94
2022-09-12T00:40:53.863Z,95.84
2022-09-12T00:41:53.862Z,95.84
2022-09-12T00:42:53.850Z,95.63
2022-09-12T00:43:53.827Z,95.53
2022-09-12T00:44:53.852Z,95.43
2022-09-12T00:45:53.864Z,95.32
2022-09-12T00:46:53.793Z,95.32
2022-09-12T00:47:53.778Z,95.22
2022-09-12T00:48:53.786Z,95.32
2022-09-12T00:49:53.744Z,95.63
2022-09-12T00:50:53.735Z,95.63
2022-09-12T00:51:53.774Z,95.53
2022-09-12T00:52:53.729Z,95.43
2022-09-12T00:53:53.701Z,95.32
2022-09-12T00:54:53.706Z,95.43
2022-09-12T00:55:53.665Z,95.43
2022-09-12T00:56:53.680Z,95.32
2022-09-12T00:57:53.654Z,95.22
2022-09-12T00:58:53.620Z,95.02
2022-09-12T00:59:53.639Z,94.92
2022-09-12T01:00:53.632Z,94.96
2022-09-12T01:01:53.691Z,94.85
2022-09-12T01:02:53.571Z,94.96
2022-09-12T01:03:53.586Z,94.85
2022-09-12T01:04:53.547Z,94.85
2022-09-12T01:05:53.534Z,94.96
2022-09-12T01:06:53.552Z,95.17
2022-09-12T01:07:53.505Z,95.37
2022-09-12T01:08:53.497Z,95.26
2022-09-12T01:09:53.482Z,95.17
2022-09-12T01:10:53.465Z,95.06
2022-09-12T01:11:53.476Z,94.85
2022-09-12T01:12:53.440Z,95.00
2022-09-12T01:13:53.465Z,95.21
2022-09-12T01:14:53.413Z,95.41
2022-09-12T01:15:53.399Z,95.21
2022-09-12T01:16:53.386Z,95.10
2022-09-12T01:17:53.413Z,95.31
2022-09-12T01:18:53.360Z,95.82
2022-09-12T01:19:53.337Z,95.82
2022-09-12T01:20:53.352Z,95.72
2022-09-12T01:21:53.309Z,95.51
2022-09-12T01:22:53.296Z,95.51
2022-09-12T01:23:53.288Z,95.21
2022-09-12T01:24:53.280Z,95.00
2022-09-12T01:25:53.313Z,95.05
2022-09-12T01:26:53.251Z,95.05
2022-09-12T01:27:53.275Z,94.95
2022-09-12T01:28:53.226Z,94.84
2022-09-12T01:29:53.203Z,94.95
2022-09-12T01:30:53.194Z,95.05
2022-09-12T01:31:53.239Z,95.15
2022-09-12T01:32:53.166Z,95.05
2022-09-12T01:33:53.186Z,94.84
2022-09-12T01:34:53.162Z,94.84
2022-09-12T01:35:53.123Z,95.05
2022-09-12T01:36:53.113Z,95.15
2022-09-12T01:37:53.092Z,95.15
2022-09-12T01:38:53.089Z,95.25
2022-09-12T01:39:53.118Z,95.46
2022-09-12T01:40:53.057Z,96.12
2022-09-12T01:41:53.037Z,96.01
2022-09-12T01:42:53.025Z,96.01
2022-09-12T01:43:53.019Z,95.91
2022-09-12T01:44:53.041Z,96.22
2022-09-12T01:45:53.023Z,96.22
2022-09-12T01:46:52.977Z,96.22
2022-09-12T01:47:52.956Z,96.12
2022-09-12T01:48:52.992Z,96.12
2022-09-12T01:49:52.929Z,96.01
2022-09-12T01:50:52.977Z,95.91
2022-09-12T01:51:52.896Z,95.81
2022-09-12T01:52:52.890Z,95.70
2022-09-12T01:53:52.879Z,95.70
2022-09-12T01:54:52.863Z,95.70
2022-09-12T01:55:52.882Z,95.61
2022-09-12T01:56:52.854Z,95.70
2022-09-12T01:57:52.861Z,95.70
2022-09-12T01:58:52.817Z,95.81
2022-09-12T01:59:52.799Z,96.94
2022-09-12T02:04:13.694Z,98.16
2022-09-12T02:05:14.664Z,98.42
2022-09-12T02:06:14.638Z,98.62
2022-09-12T02:07:14.675Z,99.03
2022-09-12T02:08:14.620Z,99.13
2022-09-12T02:09:14.622Z,98.32
2022-09-12T02:10:14.767Z,98.21
2022-09-12T02:11:14.637Z,98.00
2022-09-12T02:12:14.572Z,97.91
2022-09-12T02:13:14.553Z,97.80
2022-09-12T02:14:14.560Z,97.49
2022-09-12T02:15:14.544Z,97.29
2022-09-12T02:16:14.556Z,97.08
2022-09-12T02:17:14.533Z,96.98
2022-09-12T02:18:14.502Z,96.98
2022-09-12T02:19:14.508Z,96.98
2022-09-12T02:20:21.393Z,96.98
2022-09-12T02:21:14.455Z,97.08
2022-09-12T02:22:14.467Z,98.11
2022-09-12T02:23:14.431Z,98.32
2022-09-12T02:24:14.435Z,98.32
2022-09-12T02:25:14.408Z,98.21
2022-09-12T02:26:14.386Z,98.00
2022-09-12T02:27:14.398Z,97.70
2022-09-12T02:28:14.345Z,97.91
2022-09-12T02:29:14.342Z,98.42
2022-09-12T02:30:14.336Z,98.62
2022-09-12T02:31:14.321Z,98.83
2022-09-12T02:32:14.337Z,98.83
2022-09-12T02:33:14.296Z,98.93
2022-09-12T02:34:14.304Z,99.24
2022-09-12T02:35:14.281Z,99.75
2022-09-12T02:36:14.246Z,99.75
2022-09-12T02:37:14.286Z,99.85
2022-09-12T02:38:14.215Z,99.99
2022-09-12T02:39:14.210Z,99.99
2022-09-12T02:40:14.245Z,99.99
2022-09-12T02:41:14.190Z,99.99
2022-09-12T02:42:14.179Z,99.99
2022-09-12T02:43:14.156Z,99.99
2022-09-12T02:44:14.143Z,99.99
2022-09-12T02:45:14.178Z,99.76
2022-09-12T02:46:14.118Z,99.04
2022-09-12T02:47:14.108Z,98.74
2022-09-12T02:48:14.087Z,98.63
2022-09-12T02:49:14.106Z,98.22
2022-09-12T02:50:14.068Z,98.12
2022-09-12T02:51:14.052Z,98.02
2022-09-12T02:52:14.084Z,97.91
2022-09-12T02:53:14.030Z,97.91
2022-09-12T02:54:14.002Z,97.81
2022-09-12T02:55:14.018Z,98.02
2022-09-12T02:56:13.999Z,97.91
2022-09-12T02:57:13.965Z,97.75
2022-09-12T02:58:13.953Z,98.47
2022-09-12T02:59:13.994Z,98.68
2022-09-12T03:00:13.947Z,98.47
2022-09-12T03:01:13.954Z,98.47
2022-09-12T03:02:13.944Z,98.37
2022-09-12T03:03:13.891Z,98.37
2022-09-12T03:04:13.886Z,98.37
2022-09-12T03:05:13.895Z,98.58
2022-09-12T03:06:13.860Z,98.78
2022-09-12T03:07:13.879Z,98.99
2022-09-12T03:08:13.837Z,99.09
2022-09-12T03:09:13.796Z,99.19
2022-09-12T03:10:13.800Z,99.09
2022-09-12T03:11:13.799Z,98.99
2022-09-12T03:12:13.775Z,98.99
2022-09-12T03:13:13.783Z,98.88
2022-09-12T03:14:13.736Z,98.88
2022-09-12T03:15:13.730Z,98.99
2022-09-12T03:16:13.743Z,98.99
2022-09-12T03:17:13.753Z,98.88
2022-09-12T03:18:13.694Z,98.78
2022-09-12T03:19:13.679Z,98.88
2022-09-12T03:20:13.666Z,99.60
2022-09-12T03:21:13.677Z,99.70
2022-09-12T03:22:13.629Z,99.60
2022-09-12T03:23:13.645Z,99.50
2022-09-12T03:24:13.609Z,99.40
2022-09-12T03:25:13.599Z,99.19
2022-09-12T03:26:13.582Z,99.19
2022-09-12T03:27:13.571Z,99.09
2022-09-12T03:28:13.590Z,99.09
2022-09-12T03:29:13.535Z,99.19
2022-09-12T03:30:13.536Z,99.25
2022-09-12T03:31:13.545Z,98.27
2022-09-12T03:32:13.532Z,97.45
2022-09-12T03:33:13.481Z,97.80
2022-09-12T03:34:13.475Z,99.13
2022-09-12T03:35:13.460Z,99.29
2022-09-12T03:36:13.498Z,99.24
2022-09-12T03:37:13.431Z,99.09
2022-09-12T03:38:13.425Z,98.78
2022-09-12T03:39:13.397Z,98.72
2022-09-12T03:40:13.455Z,99.75
2022-09-12T03:41:13.401Z,99.75
2022-09-12T03:42:13.372Z,99.65
2022-09-12T03:43:13.357Z,99.13
2022-09-12T03:44:13.343Z,98.93
2022-09-12T03:45:13.356Z,99.03
2022-09-12T03:46:13.309Z,99.24
2022-09-12T03:47:13.298Z,99.34
2022-09-12T03:48:13.291Z,99.34
2022-09-12T03:49:13.273Z,99.44
2022-09-12T03:50:13.308Z,99.54
2022-09-12T03:51:13.245Z,99.54
2022-09-12T03:52:13.229Z,99.34
2022-09-12T03:53:17.043Z,99.34
2022-09-12T03:54:13.208Z,99.24
2022-09-12T03:55:13.209Z,99.13
2022-09-12T03:56:13.211Z,99.03
2022-09-12T03:57:13.198Z,99.69
2022-09-12T03:58:13.155Z,99.90
2022-09-12T03:59:13.140Z,99.99
2022-09-12T04:00:17.650Z,99.99
2022-09-12T04:01:13.207Z,99.99
2022-09-12T04:02:13.137Z,99.99
2022-09-12T04:03:13.102Z,99.85
2022-09-12T04:04:13.073Z,99.75
2022-09-12T04:05:13.056Z,99.75
2022-09-12T04:06:13.048Z,99.24
2022-09-12T04:07:13.059Z,99.44
2022-09-12T04:08:13.015Z,99.44
2022-09-12T04:09:12.995Z,99.34
2022-09-12T04:10:16.084Z,99.13
2022-09-12T04:11:13.010Z,98.93
2022-09-12T04:12:12.995Z,98.93
2022-09-12T04:13:12.989Z,98.87
2022-09-12T04:14:12.940Z,99.18
2022-09-12T04:15:12.928Z,99.24
2022-09-12T04:16:12.970Z,99.24
2022-09-12T04:17:12.897Z,99.18
2022-09-12T04:18:12.913Z,98.93
2022-09-12T04:19:12.865Z,98.87
2022-09-12T04:20:12.902Z,98.87
2022-09-12T04:21:12.841Z,98.87
2022-09-12T04:22:12.851Z,98.77
2022-09-12T04:23:12.817Z,98.67
2022-09-12T04:24:12.830Z,98.36
2022-09-12T04:25:12.812Z,98.25
2022-09-12T04:26:12.784Z,98.36
2022-09-12T04:27:12.797Z,99.38
2022-09-12T04:28:12.754Z,99.69
2022-09-12T04:29:12.737Z,99.69
2022-09-12T04:30:12.729Z,99.59
2022-09-12T04:31:12.730Z,99.49
2022-09-12T04:32:12.708Z,99.38
2022-09-12T04:33:12.707Z,99.49
2022-09-12T04:34:12.666Z,99.49
2022-09-12T04:35:12.661Z,99.69
2022-09-12T04:36:12.670Z,99.79
2022-09-12T04:37:12.638Z,99.59
2022-09-12T04:38:12.656Z,99.38
2022-09-12T04:39:12.602Z,99.28
2022-09-12T04:40:12.614Z,99.59
2022-09-12T04:41:12.566Z,99.69
2022-09-12T04:42:12.573Z,99.90
2022-09-12T04:43:14.687Z,99.99
2022-09-12T04:44:12.568Z,99.90
2022-09-12T04:45:12.524Z,99.99
2022-09-12T04:46:12.539Z,99.99
2022-09-12T04:47:12.500Z,99.99
2022-09-12T04:48:12.485Z,99.99
2022-09-12T04:49:12.505Z,99.99
2022-09-12T04:50:12.458Z,99.90
2022-09-12T04:51:12.449Z,99.69
2022-09-12T04:52:12.434Z,99.49
2022-09-12T04:53:12.414Z,99.28
2022-09-12T04:54:12.434Z,99.49
2022-09-12T04:55:12.389Z,99.90
2022-09-12T04:56:12.379Z,99.95
2022-09-12T04:57:12.357Z,99.95
2022-09-12T04:58:12.350Z,99.85
2022-09-12T04:59:12.357Z,99.54
2022-09-12T05:00:12.327Z,99.13
2022-09-12T05:01:12.348Z,99.13
2022-09-12T05:02:12.356Z,99.13
2022-09-12T05:03:12.298Z,98.93
2022-09-12T05:04:12.302Z,98.72
2022-09-12T05:05:12.257Z,98.83
2022-09-12T05:06:12.237Z,98.52
2022-09-12T05:07:12.220Z,98.93
2022-09-12T05:08:12.227Z,99.13
2022-09-12T05:09:12.231Z,98.83
2022-09-12T05:10:12.184Z,99.44
2022-09-12T05:11:12.177Z,99.24
2022-09-12T05:12:12.157Z,98.83
2022-09-12T05:13:12.186Z,98.52
2022-09-12T05:14:12.159Z,98.72
2022-09-12T05:15:12.118Z,98.83
2022-09-12T05:16:12.173Z,98.83
2022-09-12T05:17:12.093Z,98.83
2022-09-12T05:18:12.106Z,98.62
2022-09-12T05:19:12.105Z,98.68
2022-09-12T05:20:12.051Z,98.47
2022-09-12T05:21:12.056Z,98.07
2022-09-12T05:22:12.027Z,97.86
2022-09-12T05:23:12.044Z,97.96
2022-09-12T05:24:11.999Z,97.96
2022-09-12T05:25:11.999Z,97.96
2022-09-12T05:26:12.000Z,97.70
2022-09-12T05:27:11.957Z,97.91
2022-09-12T05:28:11.948Z,98.32
2022-09-12T05:29:11.956Z,98.58
2022-09-12T05:30:11.922Z,98.47
2022-09-12T05:31:11.898Z,97.96
2022-09-12T05:32:11.897Z,97.65
2022-09-12T05:33:11.874Z,97.40
2022-09-12T05:34:11.885Z,97.20
2022-09-12T05:35:11.851Z,97.09
2022-09-12T05:36:11.860Z,97.20
2022-09-12T05:37:11.852Z,97.14
2022-09-12T05:38:11.818Z,97.55
2022-09-12T05:39:11.802Z,97.65
2022-09-12T05:40:11.813Z,97.75
2022-09-12T05:41:16.933Z,97.65
2022-09-12T05:42:11.799Z,97.30
2022-09-12T05:43:11.760Z,97.09
2022-09-12T05:44:11.756Z,96.89
2022-09-12T05:45:11.727Z,96.89
2022-09-12T05:46:11.731Z,96.79
2022-09-12T05:47:11.720Z,96.69
2022-09-12T05:48:11.682Z,96.69
2022-09-12T05:49:11.692Z,96.58
2022-09-12T05:50:11.655Z,96.48
2022-09-12T05:51:11.645Z,96.79
2022-09-12T05:52:11.650Z,96.89
2022-09-12T05:53:11.618Z,96.79
2022-09-12T05:54:11.604Z,96.58
2022-09-12T05:55:11.631Z,96.58
2022-09-12T05:56:11.586Z,96.89
2022-09-12T05:57:11.589Z,96.89
2022-09-12T05:58:11.549Z,96.79
2022-09-12T05:59:11.534Z,96.33
2022-09-12T06:00:11.521Z,96.03
2022-09-12T06:01:11.562Z,95.92
2022-09-12T06:02:11.598Z,95.82
2022-09-12T06:03:11.479Z,95.41
2022-09-12T06:04:11.473Z,95.17
2022-09-12T06:05:11.446Z,94.75
2022-09-12T06:06:11.440Z,93.79
2022-09-12T06:07:11.452Z,93.48
2022-09-12T06:08:11.472Z,93.38
2022-09-12T06:09:11.394Z,92.93
2022-09-12T06:10:11.386Z,92.42
2022-09-12T06:11:11.365Z,92.21
2022-09-12T06:12:11.346Z,92.11
2022-09-12T06:13:11.380Z,92.11
2022-09-12T06:14:11.357Z,91.80
2022-09-12T06:15:11.324Z,91.86
2022-09-12T06:16:11.301Z,91.96
2022-09-12T06:17:11.286Z,92.07
2022-09-12T06:18:11.312Z,92.07
2022-09-12T06:19:11.274Z,90.94
2022-09-12T06:20:11.267Z,90.64
2022-09-12T06:21:11.233Z,90.94
2022-09-12T06:22:11.250Z,91.82
2022-09-12T06:23:11.207Z,90.39
2022-09-12T06:24:11.198Z,90.70
2022-09-12T06:25:11.184Z,90.08
2022-09-12T06:26:11.171Z,89.98
2022-09-12T06:27:11.170Z,89.58
2022-09-12T06:28:11.150Z,89.32
2022-09-12T06:29:11.155Z,89.43
2022-09-12T06:30:11.123Z,89.94
2022-09-12T06:31:11.194Z,88.57
2022-09-12T06:32:11.100Z,86.82
2022-09-12T06:33:11.099Z,82.38
2022-09-12T06:34:11.074Z,78.98
2022-09-12T06:35:11.054Z,77.14
2022-09-12T06:36:12.526Z,73.39
2022-09-12T06:37:11.071Z,72.61
2022-09-12T06:38:11.013Z,70.76
2022-09-12T06:39:11.015Z,69.98
2022-09-12T06:40:11.067Z,68.13
2022-09-12T06:41:10.971Z,67.50
2022-09-12T06:42:10.982Z,67.33
2022-09-12T06:43:10.953Z,65.39
2022-09-12T06:44:10.964Z,65.42
2022-09-12T06:45:10.926Z,62.81
2022-09-12T06:46:10.955Z,63.65
2022-09-12T06:47:10.892Z,62.37
2022-09-12T06:48:10.878Z,63.81
2022-09-12T06:49:10.891Z,64.54
2022-09-12T06:50:10.865Z,65.12
2022-09-12T06:51:10.829Z,65.32
2022-09-12T06:52:10.827Z,65.22
2022-09-12T06:53:10.806Z,62.01
2022-09-12T06:54:10.824Z,62.74
2022-09-12T06:55:10.795Z,63.45
2022-09-12T06:56:10.777Z,64.48
2022-09-12T06:57:10.754Z,63.92
2022-09-12T06:58:10.743Z,63.47
2022-09-12T06:59:10.750Z,64.41
2022-09-12T07:00:10.733Z,64.89
2022-09-12T07:01:10.768Z,62.94
2022-09-12T07:02:10.755Z,63.67
2022-09-12T07:03:10.683Z,63.54
2022-09-12T07:04:10.653Z,62.38
2022-09-12T07:05:10.649Z,62.65
2022-09-12T07:06:10.633Z,61.74
2022-09-12T07:07:10.644Z,61.47
2022-09-12T07:08:10.604Z,62.75
2022-09-12T07:09:10.614Z,62.12
2022-09-12T07:10:10.577Z,60.53
2022-09-12T07:11:10.566Z,61.70
2022-09-12T07:12:10.585Z,62.88
2022-09-12T07:13:10.537Z,62.35
2022-09-12T07:14:10.530Z,61.54
2022-09-12T07:15:10.518Z,61.44
2022-09-12T07:16:10.497Z,60.84
2022-09-12T07:17:10.608Z,62.21
2022-09-12T07:18:10.501Z,64.38
2022-09-12T07:19:10.479Z,64.47
2022-09-12T07:20:10.441Z,67.56
2022-09-12T07:21:10.444Z,68.57
2022-09-12T07:22:10.414Z,67.60
2022-09-12T07:23:10.412Z,68.47
2022-09-12T07:24:10.588Z,69.95
2022-09-12T07:25:10.376Z,71.09
2022-09-12T07:26:10.373Z,72.04
2022-09-12T07:27:10.378Z,72.89
2022-09-12T07:28:10.336Z,74.44
2022-09-12T07:29:35.499Z,74.85
2022-09-12T07:30:10.320Z,75.35
2022-09-12T07:31:10.352Z,75.56
2022-09-12T07:32:10.295Z,75.25
2022-09-12T07:33:10.272Z,75.15
2022-09-12T07:34:10.277Z,76.47
2022-09-12T07:35:10.265Z,77.38
2022-09-12T07:36:10.237Z,78.19
2022-09-12T07:37:10.250Z,79.21
2022-09-12T07:38:10.213Z,79.61
2022-09-12T07:39:10.193Z,79.41
2022-09-12T07:40:10.263Z,79.92
2022-09-12T07:41:10.203Z,78.19
2022-09-12T07:42:10.145Z,76.98
2022-09-12T07:43:10.147Z,75.90
2022-09-12T07:44:10.129Z,76.10
2022-09-12T07:45:10.133Z,78.64
2022-09-12T07:46:10.150Z,77.42
2022-09-12T07:47:10.121Z,78.33
2022-09-12T07:48:10.083Z,78.44
2022-09-12T07:49:10.080Z,79.04
2022-09-12T07:50:10.052Z,79.65
2022-09-12T07:51:10.051Z,78.94
2022-09-12T07:52:10.048Z,78.33
2022-09-12T07:53:10.030Z,78.74
2022-09-12T07:54:09.984Z,78.64
2022-09-12T07:55:09.987Z,78.64
2022-09-12T07:56:09.992Z,79.04
2022-09-12T07:57:09.957Z,79.65
2022-09-12T07:58:09.937Z,80.97
2022-09-12T07:59:09.971Z,81.99
2022-09-12T08:00:09.951Z,82.29
2022-09-12T08:01:09.937Z,77.93
2022-09-12T08:02:12.451Z,79.00
2022-09-12T08:03:09.874Z,81.34
2022-09-12T08:04:09.922Z,81.24
2022-09-12T08:05:09.844Z,82.15
2022-09-12T08:06:09.854Z,79.58
2022-09-12T08:07:09.819Z,79.88
2022-09-12T08:08:09.799Z,80.39
2022-09-12T08:09:09.788Z,80.79
2022-09-12T08:10:09.774Z,79.68
2022-09-12T08:11:09.789Z,79.17
2022-09-12T08:12:09.790Z,79.34
2022-09-12T08:13:10.925Z,80.76
2022-09-12T08:14:09.741Z,80.05
2022-09-12T08:15:09.707Z,78.63
2022-09-12T08:16:09.768Z,77.11
2022-09-12T08:17:09.682Z,79.20
2022-09-12T08:18:09.689Z,79.50
2022-09-12T08:19:09.713Z,77.11
2022-09-12T08:20:09.643Z,79.30
2022-09-12T08:21:09.632Z,79.60
2022-09-12T08:22:09.645Z,79.40
2022-09-12T08:23:09.607Z,80.52
2022-09-12T08:24:09.604Z,80.11
2022-09-12T08:25:09.585Z,80.11
2022-09-12T08:26:09.558Z,78.49
2022-09-12T08:27:09.583Z,79.26
2022-09-12T08:28:09.539Z,79.46
2022-09-12T08:29:09.539Z,79.67
2022-09-12T08:30:09.498Z,79.06
2022-09-12T08:31:09.609Z,80.18
2022-09-12T08:32:09.476Z,79.22
2022-09-12T08:33:09.480Z,79.63
2022-09-12T08:34:09.477Z,77.91
2022-09-12T08:35:09.475Z,78.01
2022-09-12T08:36:09.419Z,80.40
2022-09-12T08:37:09.439Z,75.95
2022-09-12T08:38:09.418Z,76.05
2022-09-12T08:39:09.396Z,76.76
2022-09-12T08:40:09.461Z,78.78
2022-09-12T08:41:09.428Z,78.78
2022-09-12T08:43:09.342Z,76.76
2022-09-12T08:44:09.309Z,79.55
2022-09-12T08:45:09.324Z,77.64
2022-09-12T08:46:09.446Z,79.35
2022-09-12T08:47:09.302Z,77.84
2022-09-12T08:48:09.286Z,77.80
2022-09-12T08:49:09.273Z,78.71
2022-09-12T08:50:09.234Z,77.50
2022-09-12T08:51:09.252Z,77.66
2022-09-12T08:52:09.228Z,76.55
2022-09-12T08:53:09.194Z,77.26
2022-09-12T08:54:09.267Z,76.95
2022-09-12T08:55:09.210Z,77.53
2022-09-12T08:56:09.152Z,76.42
2022-09-12T08:57:09.153Z,74.80
2022-09-12T08:58:09.171Z,75.91
2022-09-12T08:59:09.132Z,74.26
2022-09-12T09:00:09.095Z,75.27
2022-09-12T09:01:09.134Z,75.47
2022-09-12T09:02:09.133Z,76.18
2022-09-12T09:03:09.096Z,75.34
2022-09-12T09:04:09.051Z,76.44
2022-09-12T09:05:09.037Z,74.93
2022-09-12T09:06:09.053Z,75.20
2022-09-12T09:07:09.012Z,75.10
2022-09-12T09:08:08.987Z,72.27
2022-09-12T09:09:08.975Z,71.77
2022-09-12T09:10:08.989Z,73.48
2022-09-12T09:11:08.973Z,75.40
2022-09-12T09:12:08.949Z,74.05
2022-09-12T09:13:08.955Z,74.26
2022-09-12T09:14:08.932Z,73.45
2022-09-12T09:15:08.929Z,72.94
2022-09-12T09:16:08.982Z,74.82
2022-09-12T09:17:08.951Z,74.12
2022-09-12T09:18:08.858Z,69.59
2022-09-12T09:19:08.868Z,71.50
2022-09-12T09:20:08.845Z,71.20
2022-09-12T09:21:08.842Z,72.17
2022-09-12T09:22:08.806Z,72.27
2022-09-12T09:23:08.799Z,72.77
2022-09-12T09:24:08.807Z,74.15
2022-09-12T09:25:08.797Z,72.64
2022-09-12T09:26:08.785Z,69.89
2022-09-12T09:27:29.789Z,72.30
2022-09-12T09:28:08.727Z,69.09
2022-09-12T09:29:08.724Z,69.85
2022-09-12T09:30:08.709Z,70.66
2022-09-12T09:31:08.799Z,69.65
2022-09-12T09:32:08.671Z,68.72
2022-09-12T09:33:08.654Z,69.22
2022-09-12T09:34:08.665Z,71.63
2022-09-12T09:35:08.631Z,70.19
2022-09-12T09:36:08.645Z,67.88
2022-09-12T09:37:08.604Z,66.95
2022-09-12T09:38:08.587Z,64.57
2022-09-12T09:39:08.619Z,68.15
2022-09-12T09:40:08.613Z,66.24
2022-09-12T09:41:08.593Z,68.82
2022-09-12T09:42:08.532Z,66.71
2022-09-12T09:43:08.536Z,67.92
2022-09-12T09:45:08.534Z,66.48
2022-09-12T09:46:08.540Z,66.99
2022-09-12T09:47:08.546Z,65.98
2022-09-12T09:48:08.485Z,65.05
2022-09-12T09:49:08.445Z,65.45
2022-09-12T09:50:08.422Z,65.65
2022-09-12T09:51:08.431Z,66.35
2022-09-12T09:52:08.433Z,65.22
2022-09-12T09:53:08.394Z,62.81
2022-09-12T09:54:08.374Z,62.28
2022-09-12T09:55:08.418Z,63.89
2022-09-12T09:56:08.348Z,64.65
2022-09-12T09:57:08.336Z,61.35
2022-09-12T09:58:08.362Z,62.65
2022-09-12T09:59:08.318Z,61.05
2022-09-12T10:00:08.310Z,60.92
2022-09-12T10:01:08.346Z,61.22
2022-09-12T10:02:08.391Z,60.32
2022-09-12T10:03:13.185Z,60.72
2022-09-12T10:04:08.275Z,60.10
2022-09-12T10:05:08.235Z,57.29
2022-09-12T10:06:08.247Z,57.79
2022-09-12T10:07:08.251Z,60.32
2022-09-12T10:08:08.196Z,61.49
2022-09-12T10:09:08.177Z,58.99
2022-09-12T10:10:08.169Z,58.86
2022-09-12T10:11:08.187Z,57.87
2022-09-12T10:12:08.137Z,59.83
2022-09-12T10:13:08.133Z,59.94
2022-09-12T10:14:08.133Z,59.01
2022-09-12T10:15:08.139Z,57.88
2022-09-12T10:16:08.166Z,59.68
2022-09-12T10:17:08.096Z,57.56
2022-09-12T10:18:08.057Z,55.96
2022-09-12T10:19:08.087Z,55.33
2022-09-12T10:20:21.199Z,55.43
2022-09-12T10:21:08.046Z,57.73
2022-09-12T10:22:08.009Z,55.73
2022-09-12T10:23:07.999Z,52.62
2022-09-12T10:24:07.976Z,53.61
2022-09-12T10:25:08.001Z,53.31
2022-09-12T10:26:07.974Z,54.41
2022-09-12T10:27:07.954Z,54.01
2022-09-12T10:28:07.927Z,54.28
2022-09-12T10:29:07.957Z,52.69
2022-09-12T10:30:07.967Z,52.69
2022-09-12T10:31:07.973Z,56.18
2022-09-12T10:32:07.887Z,55.16
2022-09-12T10:33:07.861Z,55.95
2022-09-12T10:34:07.854Z,51.79
2022-09-12T10:35:07.850Z,52.17
2022-09-12T10:36:07.840Z,53.66
2022-09-12T10:37:07.869Z,54.24
2022-09-12T10:38:07.789Z,54.90
2022-09-12T10:39:07.788Z,55.30
2022-09-12T10:40:07.851Z,54.08
2022-09-12T10:41:07.785Z,55.05
2022-09-12T10:42:07.746Z,54.06
2022-09-12T10:43:07.766Z,50.95
2022-09-12T10:44:07.713Z,51.84
2022-09-12T10:45:07.731Z,51.32
2022-09-12T10:46:07.747Z,51.72
2022-09-12T10:47:07.707Z,52.39
2022-09-12T10:48:07.871Z,53.58
2022-09-12T10:49:07.656Z,53.48
2022-09-12T10:50:07.630Z,52.98
2022-09-12T10:51:07.672Z,53.19
2022-09-12T10:52:07.610Z,51.60
2022-09-12T10:53:07.649Z,51.28
2022-09-12T10:54:07.586Z,53.45
2022-09-12T10:55:07.578Z,52.56
2022-09-12T10:56:07.561Z,52.64
2022-09-12T10:57:07.575Z,53.33
2022-09-12T10:58:07.558Z,51.65
2022-09-12T10:59:07.524Z,51.92
2022-09-12T11:00:07.502Z,51.45
2022-09-12T11:01:07.569Z,52.64
2022-09-12T11:02:07.524Z,52.81
2022-09-12T11:03:07.506Z,51.89
2022-09-12T11:04:07.455Z,52.09
2022-09-12T11:05:07.452Z,51.89
2022-09-12T11:06:07.433Z,51.50
2022-09-12T11:07:07.424Z,51.18
2022-09-12T11:08:07.434Z,50.31
2022-09-12T11:09:07.397Z,53.35
2022-09-12T11:10:07.387Z,51.07
2022-09-12T11:11:07.366Z,50.88
2022-09-12T11:12:07.368Z,50.46
2022-09-12T11:13:07.369Z,50.46
2022-09-12T11:14:07.332Z,50.43
2022-09-12T11:15:07.317Z,49.74
2022-09-12T11:16:07.424Z,49.82
2022-09-12T11:17:10.623Z,49.82
2022-09-12T11:18:07.322Z,50.48
2022-09-12T11:19:07.335Z,48.71
2022-09-12T11:20:07.259Z,48.21
2022-09-12T11:21:07.228Z,49.60
2022-09-12T11:22:07.233Z,50.07
2022-09-12T11:23:07.210Z,49.18
2022-09-12T11:24:07.228Z,47.20
2022-09-12T11:25:07.189Z,48.27
2022-09-12T11:26:07.179Z,47.57
2022-09-12T11:27:07.157Z,47.00
2022-09-12T11:28:07.169Z,47.40
2022-09-12T11:29:07.129Z,46.70
2022-09-12T11:30:07.125Z,46.19
2022-09-12T11:31:07.149Z,47.47
2022-09-12T11:32:07.139Z,48.27
2022-09-12T11:33:07.091Z,47.87
2022-09-12T11:34:07.079Z,46.96
2022-09-12T11:35:07.069Z,46.37
2022-09-12T11:36:07.056Z,46.26
2022-09-12T11:37:10.439Z,47.87
2022-09-12T11:38:07.023Z,46.39
2022-09-12T11:39:07.036Z,46.96
2022-09-12T11:40:07.067Z,48.14
2022-09-12T11:41:06.981Z,47.65
2022-09-12T11:42:06.966Z,47.16
2022-09-12T11:43:06.959Z,47.16
2022-09-12T11:44:06.978Z,47.77
2022-09-12T11:45:06.930Z,46.29
2022-09-12T11:46:07.042Z,47.77
2022-09-12T11:47:06.915Z,46.26
2022-09-12T11:48:06.900Z,45.89
2022-09-12T11:49:06.920Z,46.56
2022-09-12T11:50:06.868Z,46.86
2022-09-12T11:51:06.885Z,48.04
2022-09-12T11:52:06.859Z,46.37
2022-09-12T11:53:06.839Z,46.76
2022-09-12T11:54:06.823Z,46.74
2022-09-12T11:55:06.809Z,45.85
2022-09-12T11:56:07.435Z,46.54
2022-09-12T11:57:06.784Z,46.84
2022-09-12T11:58:06.769Z,46.04
2022-09-12T11:59:06.750Z,44.84
2022-09-12T12:00:06.761Z,44.84
2022-09-12T12:01:07.381Z,43.76
2022-09-12T12:02:06.765Z,45.83
2022-09-12T12:03:06.714Z,45.83
2022-09-12T12:04:06.709Z,45.21
2022-09-12T12:05:06.701Z,45.90
2022-09-12T12:06:07.399Z,45.51
2022-09-12T12:07:06.649Z,45.51
2022-09-12T12:08:06.629Z,45.12
2022-09-12T12:09:06.625Z,45.21
2022-09-12T12:10:06.623Z,45.31
2022-09-12T12:11:07.423Z,44.33
2022-09-12T12:12:06.585Z,44.82
2022-09-12T12:13:09.627Z,46.10
2022-09-12T12:14:06.589Z,47.19
2022-09-12T12:15:06.555Z,45.41
2022-09-12T12:16:06.638Z,45.90
2022-09-12T12:17:06.519Z,45.93
2022-09-12T12:18:06.545Z,44.84
2022-09-12T12:19:10.582Z,44.84
2022-09-12T12:20:08.637Z,44.74
2022-09-12T12:21:06.469Z,44.84
2022-09-12T12:22:06.470Z,45.53
2022-09-12T12:23:06.448Z,45.14
2022-09-12T12:24:06.486Z,46.12
2022-09-12T12:25:06.450Z,46.62
2022-09-12T12:26:06.434Z,47.01
2022-09-12T12:27:06.395Z,46.52
2022-09-12T12:28:06.396Z,45.14
2022-09-12T12:29:06.369Z,45.65
2022-09-12T12:30:06.389Z,46.54
2022-09-12T12:31:06.992Z,46.37
2022-09-12T12:32:06.331Z,46.17
2022-09-12T12:33:06.365Z,46.96
2022-09-12T12:34:06.311Z,46.94
2022-09-12T12:35:06.292Z,46.54
2022-09-12T12:36:06.913Z,47.43
2022-09-12T12:37:07.428Z,46.04
2022-09-12T12:38:06.266Z,45.87
2022-09-12T12:39:06.270Z,45.67
2022-09-12T12:40:06.290Z,44.98
2022-09-12T12:41:06.911Z,45.38
2022-09-12T12:42:06.236Z,45.57
2022-09-12T12:43:06.242Z,45.06
2022-09-12T12:44:06.176Z,46.74
2022-09-12T12:45:06.172Z,47.03
2022-09-12T12:46:08.944Z,44.67
2022-09-12T12:47:06.157Z,45.56
2022-09-12T12:48:08.187Z,45.16
2022-09-12T12:49:06.128Z,44.76
2022-09-12T12:50:06.105Z,45.04
2022-09-12T12:51:06.931Z,45.63
2022-09-12T12:52:06.076Z,45.31
2022-09-12T12:53:06.102Z,45.31
2022-09-12T12:54:09.787Z,44.62
2022-09-12T12:55:06.061Z,43.27
2022-09-12T12:56:08.914Z,43.46
2022-09-12T12:57:06.030Z,44.15
2022-09-12T12:58:06.040Z,43.29